Time,TemperatureF,DewpointF,PressureIn,WindDirection,WindDirectionDegrees,WindSpeedMPH,WindSpeedGustMPH,Humidity,HourlyPrecipIn,Conditions,Clouds,dailyrainin,SoftwareType,DateUTC
2013-08-27 00:01:00,70.0,66.9,30.03,SW,225,2.2,3.6,90,0.00,,---,0.00,VWS V14.01,2013-08-27 04:01:00,
2013-08-27 00:06:00,70.0,66.9,30.03,SW,225,0.0,0.0,90,0.00,,---,0.00,VWS V14.01,2013-08-27 04:06:00,
2013-08-27 00:11:00,70.0,66.9,30.03,SW,225,0.0,0.0,90,0.00,,---,0.00,VWS V14.01,2013-08-27 04:11:00,
2013-08-27 00:16:00,70.0,66.9,30.03,South,180,0.0,0.0,90,0.00,,---,0.00,VWS V14.01,2013-08-27 04:16:00,
2013-08-27 00:21:00,69.8,66.7,30.03,SW,225,0.0,0.0,90,0.00,,---,0.00,VWS V14.01,2013-08-27 04:21:00,
2013-08-27 00:26:00,69.8,66.7,30.03,South,180,0.0,2.7,90,0.00,,---,0.00,VWS V14.01,2013-08-27 04:26:00,
2013-08-27 00:31:00,69.6,66.6,30.03,South,180,0.0,0.0,90,0.00,,---,0.00,VWS V14.01,2013-08-27 04:31:00,
2013-08-27 00:36:00,69.6,66.6,30.03,SW,225,0.0,0.0,90,0.00,,---,0.00,VWS V14.01,2013-08-27 04:36:00,
2013-08-27 00:41:00,69.6,66.6,30.03,SW,225,2.2,3.1,90,0.00,,---,0.00,VWS V14.01,2013-08-27 04:41:00,
2013-08-27 00:46:00,69.6,66.6,30.03,SW,225,0.0,0.0,90,0.00,,---,0.00,VWS V14.01,2013-08-27 04:46:00,
2013-08-27 00:51:00,69.6,66.6,30.03,SW,225,0.0,0.0,90,0.00,,---,0.00,VWS V14.01,2013-08-27 04:51:00,
2013-08-27 00:56:00,69.6,66.6,30.03,SW,225,0.0,0.0,90,0.00,,---,0.00,VWS V14.01,2013-08-27 04:56:00,
2013-08-27 01:01:00,69.6,66.6,30.03,SW,225,0.0,0.0,90,0.00,,---,0.00,VWS V14.01,2013-08-27 05:01:00,
2013-08-27 01:06:00,69.6,66.6,30.03,SW,225,0.0,0.0,90,0.00,,---,0.00,VWS V14.01,2013-08-27 05:06:00,
2013-08-27 01:11:00,69.8,66.7,30.03,SE,135,0.0,0.0,90,0.00,,---,0.00,VWS V14.01,2013-08-27 05:11:00,
2013-08-27 01:16:00,69.8,66.7,30.03,South,180,0.0,0.0,90,0.00,,---,0.00,VWS V14.01,2013-08-27 05:16:00,
2013-08-27 01:21:00,70.0,66.9,30.03,SW,225,0.0,0.0,90,0.00,,---,0.00,VWS V14.01,2013-08-27 05:21:00,
2013-08-27 01:26:00,70.2,67.1,30.03,SW,225,2.2,2.7,90,0.00,,---,0.00,VWS V14.01,2013-08-27 05:26:00,
2013-08-27 01:31:00,70.2,67.1,30.03,SW,225,0.0,0.0,90,0.00,,---,0.00,VWS V14.01,2013-08-27 05:31:00,
2013-08-27 01:36:00,70.0,66.9,30.03,SW,225,0.0,0.0,90,0.00,,---,0.00,VWS V14.01,2013-08-27 05:36:00,
2013-08-27 01:41:00,69.8,66.7,30.03,SW,225,0.0,2.2,90,0.00,,---,0.00,VWS V14.01,2013-08-27 05:41:00,
2013-08-27 01:46:00,69.6,66.6,30.03,SW,225,0.0,0.0,90,0.00,,---,0.00,VWS V14.01,2013-08-27 05:46:00,
2013-08-27 01:51:00,69.4,66.4,30.03,SW,225,0.0,0.0,90,0.00,,---,0.00,VWS V14.01,2013-08-27 05:51:00,
2013-08-27 01:56:00,69.3,66.2,30.03,SSE,158,0.0,0.0,90,0.00,,---,0.00,VWS V14.01,2013-08-27 05:56:00,
2013-08-27 02:01:00,69.4,66.4,30.03,SW,225,2.7,2.7,90,0.00,,---,0.00,VWS V14.01,2013-08-27 06:01:00,
2013-08-27 02:06:00,69.6,66.6,30.03,SW,225,0.0,4.0,90,0.00,,---,0.00,VWS V14.01,2013-08-27 06:06:00,
2013-08-27 02:11:00,69.6,66.6,30.03,SE,135,0.0,0.0,90,0.00,,---,0.00,VWS V14.01,2013-08-27 06:11:00,
2013-08-27 02:16:00,69.6,66.6,30.03,SW,225,0.0,0.0,90,0.00,,---,0.00,VWS V14.01,2013-08-27 06:16:00,
2013-08-27 02:21:00,69.6,66.6,30.03,SSW,202,0.0,0.0,90,0.00,,---,0.00,VWS V14.01,2013-08-27 06:21:00,
2013-08-27 02:26:00,69.6,66.2,30.03,WSW,248,0.0,0.0,89,0.00,,---,0.00,VWS V14.01,2013-08-27 06:26:00,
2013-08-27 02:31:00,69.6,66.2,30.03,South,180,0.0,0.0,89,0.00,,---,0.00,VWS V14.01,2013-08-27 06:31:00,
2013-08-27 02:36:00,69.6,66.2,30.03,East,90,0.0,0.0,89,0.00,,---,0.00,VWS V14.01,2013-08-27 06:36:00,
2013-08-27 02:41:00,69.8,66.4,30.03,SW,225,0.0,0.0,89,0.00,,---,0.00,VWS V14.01,2013-08-27 06:41:00,
2013-08-27 02:46:00,69.8,66.4,30.03,South,180,0.0,3.6,89,0.00,,---,0.00,VWS V14.01,2013-08-27 06:46:00,
2013-08-27 02:51:00,69.8,66.4,30.03,SE,135,0.0,0.0,89,0.00,,---,0.00,VWS V14.01,2013-08-27 06:51:00,
2013-08-27 02:56:00,69.8,66.4,30.03,SW,225,2.2,3.6,89,0.00,,---,0.00,VWS V14.01,2013-08-27 06:56:00,
2013-08-27 03:01:00,69.8,66.4,30.03,SSW,202,0.0,0.0,89,0.00,,---,0.00,VWS V14.01,2013-08-27 07:01:00,
2013-08-27 03:06:00,69.8,66.1,30.03,SE,135,0.0,0.0,88,0.00,,---,0.00,VWS V14.01,2013-08-27 07:06:00,
2013-08-27 03:11:00,70.0,66.3,30.03,South,180,0.0,0.0,88,0.00,,---,0.00,VWS V14.01,2013-08-27 07:11:00,
2013-08-27 03:16:00,70.0,66.3,30.03,South,180,0.0,0.0,88,0.00,,---,0.00,VWS V14.01,2013-08-27 07:16:00,
2013-08-27 03:21:00,70.2,66.4,30.03,South,180,0.0,0.0,88,0.00,,---,0.00,VWS V14.01,2013-08-27 07:21:00,
2013-08-27 03:26:00,70.3,66.6,30.03,SW,225,0.0,0.0,88,0.00,,---,0.00,VWS V14.01,2013-08-27 07:26:00,
2013-08-27 03:31:00,70.3,66.6,30.03,South,180,0.0,0.0,88,0.00,,---,0.00,VWS V14.01,2013-08-27 07:31:00,
2013-08-27 03:36:00,70.2,66.4,30.03,SW,225,0.0,0.0,88,0.00,,---,0.00,VWS V14.01,2013-08-27 07:36:00,
2013-08-27 03:41:00,70.3,66.6,30.03,SW,225,0.0,0.0,88,0.00,,---,0.00,VWS V14.01,2013-08-27 07:41:00,
2013-08-27 03:46:00,70.3,66.6,30.03,South,180,0.0,0.0,88,0.00,,---,0.00,VWS V14.01,2013-08-27 07:46:00,
2013-08-27 03:51:00,70.7,67.0,30.03,South,180,0.0,0.0,88,0.00,,---,0.00,VWS V14.01,2013-08-27 07:51:00,
2013-08-27 03:56:00,70.7,67.0,30.03,South,180,0.0,0.0,88,0.00,,---,0.00,VWS V14.01,2013-08-27 07:56:00,
2013-08-27 04:01:00,70.9,67.2,30.03,SSE,158,0.0,0.0,88,0.00,,---,0.00,VWS V14.01,2013-08-27 08:01:00,
2013-08-27 04:06:00,70.9,67.2,30.03,SW,225,0.0,0.0,88,0.00,,---,0.00,VWS V14.01,2013-08-27 08:06:00,
2013-08-27 04:11:00,71.1,67.3,30.03,East,90,0.0,0.0,88,0.00,,---,0.00,VWS V14.01,2013-08-27 08:11:00,
2013-08-27 04:16:00,71.1,67.3,30.03,South,180,0.0,0.0,88,0.00,,---,0.00,VWS V14.01,2013-08-27 08:16:00,
2013-08-27 04:21:00,70.9,67.2,30.03,South,180,0.0,0.0,88,0.00,,---,0.00,VWS V14.01,2013-08-27 08:21:00,
2013-08-27 04:26:00,70.9,67.2,30.00,SE,135,0.0,0.0,88,0.00,,---,0.00,VWS V14.01,2013-08-27 08:26:00,
2013-08-27 04:31:00,71.1,67.3,30.00,SSW,202,0.0,0.0,88,0.00,,---,0.00,VWS V14.01,2013-08-27 08:31:00,
2013-08-27 04:36:00,71.1,67.3,30.00,SE,135,2.2,5.4,88,0.00,,---,0.00,VWS V14.01,2013-08-27 08:36:00,
2013-08-27 04:41:00,71.1,67.3,30.03,South,180,0.0,0.0,88,0.00,,---,0.00,VWS V14.01,2013-08-27 08:41:00,
2013-08-27 04:46:00,71.1,67.3,30.03,South,180,0.0,0.0,88,0.00,,---,0.00,VWS V14.01,2013-08-27 08:46:00,
2013-08-27 04:51:00,70.9,67.2,30.03,SE,135,0.0,0.0,88,0.00,,---,0.00,VWS V14.01,2013-08-27 08:51:00,
2013-08-27 04:56:00,70.9,67.2,30.03,South,180,0.0,0.0,88,0.00,,---,0.00,VWS V14.01,2013-08-27 08:56:00,
2013-08-27 05:01:00,70.7,67.0,30.03,SW,225,0.0,0.0,88,0.00,,---,0.00,VWS V14.01,2013-08-27 09:01:00,
2013-08-27 05:06:00,70.7,67.0,30.03,South,180,0.0,0.0,88,0.00,,---,0.00,VWS V14.01,2013-08-27 09:06:00,
2013-08-27 05:11:00,70.7,67.0,30.03,SW,225,0.0,0.0,88,0.00,,---,0.00,VWS V14.01,2013-08-27 09:11:00,
2013-08-27 05:16:00,70.5,66.8,30.03,SW,225,0.0,0.0,88,0.00,,---,0.00,VWS V14.01,2013-08-27 09:16:00,
2013-08-27 05:21:00,70.5,66.8,30.03,SSW,202,0.0,0.0,88,0.00,,---,0.00,VWS V14.01,2013-08-27 09:21:00,
2013-08-27 05:26:00,70.3,66.6,30.03,South,180,0.0,0.0,88,0.00,,---,0.00,VWS V14.01,2013-08-27 09:26:00,
2013-08-27 05:31:00,70.3,66.6,30.03,SW,225,0.0,0.0,88,0.00,,---,0.00,VWS V14.01,2013-08-27 09:31:00,
2013-08-27 05:36:00,70.3,66.6,30.03,SW,225,0.0,0.0,88,0.00,,---,0.00,VWS V14.01,2013-08-27 09:36:00,
2013-08-27 05:41:00,70.3,66.6,30.03,South,180,0.0,0.0,88,0.00,,---,0.00,VWS V14.01,2013-08-27 09:41:00,
2013-08-27 05:46:00,70.5,66.8,30.03,South,180,0.0,0.0,88,0.00,,---,0.00,VWS V14.01,2013-08-27 09:46:00,
2013-08-27 05:51:00,70.5,66.8,30.03,SW,225,0.0,0.0,88,0.00,,---,0.00,VWS V14.01,2013-08-27 09:51:00,
2013-08-27 05:56:00,70.7,67.0,30.03,SSW,202,0.0,0.0,88,0.00,,---,0.00,VWS V14.01,2013-08-27 09:56:00,
2013-08-27 06:01:00,70.7,66.7,30.03,South,180,0.0,0.0,87,0.00,,---,0.00,VWS V14.01,2013-08-27 10:01:00,
2013-08-27 06:06:00,70.7,66.7,30.03,South,180,0.0,0.0,87,0.00,,---,0.00,VWS V14.01,2013-08-27 10:06:00,
2013-08-27 06:11:00,70.7,66.7,30.03,South,180,0.0,0.0,87,0.00,,---,0.00,VWS V14.01,2013-08-27 10:11:00,
2013-08-27 06:16:00,70.7,66.7,30.03,South,180,0.0,0.0,87,0.00,,---,0.00,VWS V14.01,2013-08-27 10:16:00,
2013-08-27 06:21:00,70.7,66.7,30.03,South,180,0.0,0.0,87,0.00,,---,0.00,VWS V14.01,2013-08-27 10:21:00,
2013-08-27 06:26:00,70.7,66.7,30.03,South,180,0.0,0.0,87,0.00,,---,0.00,VWS V14.01,2013-08-27 10:26:00,
2013-08-27 06:31:00,70.7,66.7,30.03,SW,225,0.0,2.7,87,0.00,,---,0.00,VWS V14.01,2013-08-27 10:31:00,
2013-08-27 06:36:00,70.9,66.8,30.03,SW,225,2.2,2.2,87,0.00,,---,0.00,VWS V14.01,2013-08-27 10:36:00,
2013-08-27 06:41:00,70.9,66.8,30.03,SSW,202,0.0,2.2,87,0.00,,---,0.00,VWS V14.01,2013-08-27 10:41:00,
2013-08-27 06:46:00,70.9,66.8,30.03,SW,225,0.0,0.0,87,0.00,,---,0.00,VWS V14.01,2013-08-27 10:46:00,
2013-08-27 06:51:00,70.9,66.8,30.03,SE,135,0.0,2.2,87,0.00,,---,0.00,VWS V14.01,2013-08-27 10:51:00,
2013-08-27 06:56:00,70.7,66.7,30.03,SW,225,0.0,0.0,87,0.00,,---,0.00,VWS V14.01,2013-08-27 10:56:00,
2013-08-27 07:01:00,70.9,66.8,30.03,SW,225,0.0,0.0,87,0.00,,---,0.00,VWS V14.01,2013-08-27 11:01:00,
2013-08-27 07:05:00,70.7,66.7,30.03,SSW,202,0.0,0.0,87,0.00,,---,0.00,VWS V14.01,2013-08-27 11:05:00,
2013-08-27 07:10:00,70.7,66.7,30.03,SW,225,0.0,0.0,87,0.00,,---,0.00,VWS V14.01,2013-08-27 11:10:00,
2013-08-27 07:15:00,70.7,66.7,30.03,SW,225,0.0,0.0,87,0.00,,---,0.00,VWS V14.01,2013-08-27 11:15:00,
2013-08-27 07:20:00,70.7,66.7,30.03,SW,225,0.0,0.0,87,0.00,,---,0.00,VWS V14.01,2013-08-27 11:20:00,
2013-08-27 07:25:00,70.7,66.7,30.03,SW,225,0.0,2.2,87,0.00,,---,0.00,VWS V14.01,2013-08-27 11:25:00,
2013-08-27 07:30:00,70.9,66.8,30.03,SW,225,0.0,0.0,87,0.00,,---,0.00,VWS V14.01,2013-08-27 11:30:00,
2013-08-27 07:35:00,71.1,67.0,30.03,SSW,202,3.1,4.0,87,0.00,,---,0.00,VWS V14.01,2013-08-27 11:35:00,
2013-08-27 07:40:00,71.2,67.2,30.03,South,180,0.0,3.6,87,0.00,,---,0.00,VWS V14.01,2013-08-27 11:40:00,
2013-08-27 07:45:00,71.4,67.3,30.03,South,180,0.0,0.0,87,0.00,,---,0.00,VWS V14.01,2013-08-27 11:45:00,
2013-08-27 07:50:00,71.6,67.5,30.03,SW,225,0.0,3.1,87,0.00,,---,0.00,VWS V14.01,2013-08-27 11:50:00,
2013-08-27 07:55:00,71.8,67.7,30.03,South,180,0.0,0.0,87,0.00,,---,0.00,VWS V14.01,2013-08-27 11:55:00,
2013-08-27 08:00:00,72.0,67.9,30.03,South,180,0.0,0.0,87,0.00,,---,0.00,VWS V14.01,2013-08-27 12:00:00,
2013-08-27 08:05:00,72.1,68.1,30.03,South,180,0.0,0.0,87,0.00,,---,0.00,VWS V14.01,2013-08-27 12:05:00,
2013-08-27 08:10:00,72.1,68.1,30.03,South,180,2.2,3.1,87,0.00,,---,0.00,VWS V14.01,2013-08-27 12:10:00,
2013-08-27 08:15:00,72.5,68.4,30.03,South,180,3.1,4.0,87,0.00,,---,0.00,VWS V14.01,2013-08-27 12:15:00,
2013-08-27 08:20:00,72.9,68.8,30.03,SSW,202,0.0,2.7,87,0.00,,---,0.00,VWS V14.01,2013-08-27 12:20:00,
2013-08-27 08:25:00,73.2,69.1,30.03,South,180,3.1,3.1,87,0.00,,---,0.00,VWS V14.01,2013-08-27 12:25:00,
2013-08-27 08:30:00,73.6,69.5,30.03,SW,225,2.7,2.7,87,0.00,,---,0.00,VWS V14.01,2013-08-27 12:30:00,
2013-08-27 08:35:00,73.9,69.8,30.03,South,180,2.7,2.7,87,0.00,,---,0.00,VWS V14.01,2013-08-27 12:35:00,
2013-08-27 08:40:00,73.8,69.7,30.03,SW,225,4.9,4.9,87,0.00,,---,0.00,VWS V14.01,2013-08-27 12:40:00,
2013-08-27 08:45:00,73.8,69.7,30.03,South,180,2.7,2.7,87,0.00,,---,0.00,VWS V14.01,2013-08-27 12:45:00,
2013-08-27 08:50:00,74.3,70.2,30.03,ENE,68,2.2,2.2,87,0.00,,---,0.00,VWS V14.01,2013-08-27 12:50:00,
2013-08-27 08:55:00,74.8,70.7,30.03,South,180,2.7,3.1,87,0.00,,---,0.00,VWS V14.01,2013-08-27 12:55:00,
2013-08-27 09:00:00,75.4,71.2,30.03,SW,225,3.6,3.6,87,0.00,,---,0.00,VWS V14.01,2013-08-27 13:00:00,
2013-08-27 09:05:00,75.6,71.8,30.03,SW,225,2.7,3.6,88,0.00,,---,0.00,VWS V14.01,2013-08-27 13:05:00,
2013-08-27 09:10:00,75.4,71.9,30.03,South,180,3.6,3.6,89,0.00,,---,0.00,VWS V14.01,2013-08-27 13:10:00,
2013-08-27 09:15:00,75.6,72.4,30.03,SW,225,0.0,3.1,90,0.00,,---,0.00,VWS V14.01,2013-08-27 13:15:00,
2013-08-27 09:20:00,75.7,72.9,30.03,NW,315,0.0,0.0,91,0.00,,---,0.00,VWS V14.01,2013-08-27 13:20:00,
2013-08-27 09:25:00,76.3,73.8,30.03,WSW,248,2.2,5.4,92,0.00,,---,0.00,VWS V14.01,2013-08-27 13:25:00,
2013-08-27 09:30:00,77.0,74.8,30.03,South,180,4.0,4.0,93,0.00,,---,0.00,VWS V14.01,2013-08-27 13:30:00,
2013-08-27 09:35:00,77.2,75.6,30.03,SSE,158,8.1,8.1,95,0.00,,---,0.00,VWS V14.01,2013-08-27 13:35:00,
2013-08-27 09:40:00,77.4,75.8,30.03,West,270,2.2,3.1,95,0.00,,---,0.00,VWS V14.01,2013-08-27 13:40:00,
2013-08-27 09:45:00,77.5,75.7,30.03,NE,45,3.1,3.1,94,0.00,,---,0.00,VWS V14.01,2013-08-27 13:45:00,
2013-08-27 09:50:00,77.7,75.2,30.03,South,180,0.0,2.2,92,0.00,,---,0.00,VWS V14.01,2013-08-27 13:50:00,
2013-08-27 09:55:00,78.4,75.3,30.03,WNW,292,2.7,2.7,90,0.00,,---,0.00,VWS V14.01,2013-08-27 13:55:00,
2013-08-27 10:00:00,78.8,74.6,30.03,SW,225,3.1,4.0,87,0.00,,---,0.00,VWS V14.01,2013-08-27 14:00:00,
2013-08-27 10:05:00,79.0,74.1,30.03,SW,225,2.7,3.6,85,0.00,,---,0.00,VWS V14.01,2013-08-27 14:05:00,
2013-08-27 10:10:00,78.6,71.9,30.03,SW,225,3.6,3.6,80,0.00,,---,0.00,VWS V14.01,2013-08-27 14:10:00,
2013-08-27 10:15:00,78.3,71.2,30.03,South,180,3.6,3.6,79,0.00,,---,0.00,VWS V14.01,2013-08-27 14:15:00,
2013-08-27 10:20:00,78.4,71.4,30.03,SSW,202,3.6,4.9,79,0.00,,---,0.00,VWS V14.01,2013-08-27 14:20:00,
2013-08-27 10:25:00,79.0,71.9,30.03,SW,225,0.0,2.2,79,0.00,,---,0.00,VWS V14.01,2013-08-27 14:25:00,
2013-08-27 10:30:00,79.5,72.4,30.03,South,180,2.7,2.7,79,0.00,,---,0.00,VWS V14.01,2013-08-27 14:30:00,
2013-08-27 10:35:00,79.2,71.7,30.03,SSW,202,0.0,3.6,78,0.00,,---,0.00,VWS V14.01,2013-08-27 14:35:00,
2013-08-27 10:40:00,78.8,71.4,30.03,West,270,0.0,3.1,78,0.00,,---,0.00,VWS V14.01,2013-08-27 14:40:00,
2013-08-27 10:45:00,79.0,71.9,30.03,West,270,0.0,3.1,79,0.00,,---,0.00,VWS V14.01,2013-08-27 14:45:00,
2013-08-27 10:50:00,78.6,71.9,30.03,NW,315,2.7,5.4,80,0.00,,---,0.00,VWS V14.01,2013-08-27 14:50:00,
2013-08-27 10:55:00,78.4,71.8,30.03,WNW,292,0.0,0.0,80,0.00,,---,0.00,VWS V14.01,2013-08-27 14:55:00,
2013-08-27 11:00:00,77.5,70.9,30.03,ESE,112,0.0,0.0,80,0.00,,---,0.00,VWS V14.01,2013-08-27 15:00:00,
2013-08-27 11:05:00,77.0,70.4,30.03,SW,225,2.7,3.1,80,0.00,,---,0.00,VWS V14.01,2013-08-27 15:05:00,
2013-08-27 11:10:00,76.6,70.7,30.03,West,270,3.1,3.6,82,0.00,,---,0.00,VWS V14.01,2013-08-27 15:10:00,
2013-08-27 11:15:00,76.8,71.3,30.03,West,270,2.2,3.6,83,0.00,,---,0.00,VWS V14.01,2013-08-27 15:15:00,
2013-08-27 11:20:00,77.2,71.6,30.03,WNW,292,2.7,4.0,83,0.00,,---,0.00,VWS V14.01,2013-08-27 15:20:00,
2013-08-27 11:25:00,78.3,72.7,30.03,SE,135,0.0,0.0,83,0.00,,---,0.00,VWS V14.01,2013-08-27 15:25:00,
2013-08-27 11:30:00,78.4,72.1,30.03,North,0,4.5,4.5,81,0.00,,---,0.00,VWS V14.01,2013-08-27 15:30:00,
2013-08-27 11:35:00,78.4,71.8,30.03,WNW,292,3.6,3.6,80,0.00,,---,0.00,VWS V14.01,2013-08-27 15:35:00,
2013-08-27 11:40:00,78.4,71.8,30.03,North,0,3.6,8.1,80,0.00,,---,0.00,VWS V14.01,2013-08-27 15:40:00,
2013-08-27 11:45:00,78.3,71.6,30.03,SW,225,4.0,4.0,80,0.00,,---,0.00,VWS V14.01,2013-08-27 15:45:00,
2013-08-27 11:50:00,78.4,71.8,30.03,NW,315,0.0,0.0,80,0.00,,---,0.00,VWS V14.01,2013-08-27 15:50:00,
2013-08-27 11:55:00,78.3,71.6,30.03,South,180,2.7,4.0,80,0.00,,---,0.00,VWS V14.01,2013-08-27 15:55:00,
2013-08-27 12:00:00,78.8,71.7,30.03,SW,225,0.0,0.0,79,0.00,,---,0.00,VWS V14.01,2013-08-27 16:00:00,
2013-08-27 12:05:00,79.2,72.1,30.03,South,180,0.0,0.0,79,0.00,,---,0.00,VWS V14.01,2013-08-27 16:05:00,
2013-08-27 12:10:00,79.5,72.4,30.03,South,180,4.9,4.9,79,0.00,,---,0.00,VWS V14.01,2013-08-27 16:10:00,
2013-08-27 12:15:00,79.9,71.2,30.03,SW,225,3.6,6.7,75,0.00,,---,0.00,VWS V14.01,2013-08-27 16:15:00,
2013-08-27 12:20:00,80.4,71.8,30.03,NE,45,0.0,2.7,75,0.00,,---,0.00,VWS V14.01,2013-08-27 16:20:00,
2013-08-27 12:25:00,80.4,71.4,30.00,NW,315,2.2,2.7,74,0.00,,---,0.00,VWS V14.01,2013-08-27 16:25:00,
2013-08-27 12:30:00,81.0,72.3,30.00,WSW,248,0.0,0.0,75,0.00,,---,0.00,VWS V14.01,2013-08-27 16:30:00,
2013-08-27 12:35:00,81.5,72.4,30.00,SW,225,5.4,5.4,74,0.00,,---,0.00,VWS V14.01,2013-08-27 16:35:00,
2013-08-27 12:40:00,82.4,71.2,30.03,South,180,3.6,3.6,69,0.00,,---,0.00,VWS V14.01,2013-08-27 16:40:00,
2013-08-27 12:45:00,81.7,70.5,30.03,SE,135,2.2,2.2,69,0.00,,---,0.00,VWS V14.01,2013-08-27 16:45:00,
2013-08-27 12:50:00,82.0,71.3,30.03,SW,225,3.1,4.0,70,0.00,,---,0.00,VWS V14.01,2013-08-27 16:50:00,
2013-08-27 12:55:00,82.4,71.6,30.03,West,270,2.7,2.7,70,0.00,,---,0.00,VWS V14.01,2013-08-27 16:55:00,
2013-08-27 13:00:00,82.4,70.3,30.03,West,270,0.0,0.0,67,0.00,,---,0.00,VWS V14.01,2013-08-27 17:00:00,
2013-08-27 13:05:00,82.0,70.4,30.03,South,180,3.6,3.6,68,0.00,,---,0.00,VWS V14.01,2013-08-27 17:05:00,
2013-08-27 13:10:00,78.8,67.8,30.03,SW,225,2.2,4.9,69,0.00,,---,0.04,VWS V14.01,2013-08-27 17:10:00,
2013-08-27 13:15:00,77.9,68.9,30.03,SW,225,3.1,3.1,74,0.00,,---,0.00,VWS V14.01,2013-08-27 17:15:00,
2013-08-27 13:20:00,76.8,69.1,30.03,West,270,3.1,3.1,77,0.00,,---,0.00,VWS V14.01,2013-08-27 17:20:00,
2013-08-27 13:25:00,76.6,69.6,30.00,WNW,292,4.0,4.0,79,0.00,,---,0.00,VWS V14.01,2013-08-27 17:25:00,
2013-08-27 13:30:00,77.2,70.2,30.00,West,270,3.6,4.0,79,0.00,,---,0.00,VWS V14.01,2013-08-27 17:30:00,
2013-08-27 13:35:00,78.1,70.7,30.00,ENE,68,0.0,4.0,78,0.00,,---,0.00,VWS V14.01,2013-08-27 17:35:00,
2013-08-27 13:40:00,79.3,71.5,30.00,South,180,3.1,3.1,77,0.00,,---,0.00,VWS V14.01,2013-08-27 17:40:00,
2013-08-27 13:45:00,79.9,70.5,30.00,NW,315,0.0,0.0,73,0.00,,---,0.00,VWS V14.01,2013-08-27 17:45:00,
2013-08-27 13:50:00,80.1,70.2,30.00,NNW,338,2.7,3.6,72,0.00,,---,0.00,VWS V14.01,2013-08-27 17:50:00,
2013-08-27 13:55:00,80.6,70.3,30.00,North,0,2.7,6.3,71,0.00,,---,0.00,VWS V14.01,2013-08-27 17:55:00,
2013-08-27 14:00:00,81.5,70.4,30.00,SSW,202,3.1,3.1,69,0.00,,---,0.00,VWS V14.01,2013-08-27 18:00:00,
2013-08-27 14:05:00,80.4,68.0,30.00,NNE,22,3.1,5.4,66,0.00,,---,0.00,VWS V14.01,2013-08-27 18:05:00,
2013-08-27 14:10:00,81.0,69.0,30.00,WNW,292,3.6,4.9,67,0.00,,---,0.00,VWS V14.01,2013-08-27 18:10:00,
2013-08-27 14:15:00,80.6,68.2,30.00,West,270,0.0,2.2,66,0.00,,---,0.00,VWS V14.01,2013-08-27 18:15:00,
2013-08-27 14:20:00,80.2,68.7,30.00,NNE,22,2.2,3.1,68,0.00,,---,0.00,VWS V14.01,2013-08-27 18:20:00,
2013-08-27 14:25:00,78.3,67.7,30.00,WNW,292,2.2,4.5,70,0.00,,---,0.00,VWS V14.01,2013-08-27 18:25:00,
2013-08-27 14:30:00,79.2,69.4,30.00,South,180,4.9,4.9,72,0.00,,---,0.00,VWS V14.01,2013-08-27 18:30:00,
2013-08-27 14:35:00,79.0,68.4,30.00,NW,315,5.8,5.8,70,0.00,,---,0.00,VWS V14.01,2013-08-27 18:35:00,
2013-08-27 14:40:00,78.1,67.5,30.00,SW,225,2.7,5.4,70,0.00,,---,0.00,VWS V14.01,2013-08-27 18:40:00,
2013-08-27 14:45:00,78.4,68.7,30.00,North,0,0.0,2.7,72,0.00,,---,0.00,VWS V14.01,2013-08-27 18:45:00,
2013-08-27 14:50:00,77.7,68.0,30.00,NNW,338,2.2,2.7,72,0.00,,---,0.00,VWS V14.01,2013-08-27 18:50:00,
2013-08-27 14:55:00,77.5,67.4,30.00,South,180,6.3,6.3,71,0.00,,---,0.00,VWS V14.01,2013-08-27 18:55:00,
2013-08-27 15:00:00,77.7,67.6,30.00,NW,315,3.6,3.6,71,0.00,,---,0.00,VWS V14.01,2013-08-27 19:00:00,
2013-08-27 15:05:00,78.3,67.7,30.00,WNW,292,3.6,3.6,70,0.00,,---,0.00,VWS V14.01,2013-08-27 19:05:00,
2013-08-27 15:10:00,79.0,67.5,30.00,NW,315,3.1,4.9,68,0.00,,---,0.00,VWS V14.01,2013-08-27 19:10:00,
2013-08-27 15:16:00,79.3,67.0,30.00,East,90,0.0,3.6,66,0.00,,---,0.00,VWS V14.01,2013-08-27 19:16:00,
2013-08-27 15:20:00,79.9,67.1,30.00,South,180,4.9,4.9,65,0.00,,---,0.00,VWS V14.01,2013-08-27 19:20:00,
2013-08-27 15:26:00,80.1,66.8,30.00,NW,315,2.7,4.0,64,0.00,,---,0.00,VWS V14.01,2013-08-27 19:26:00,
2013-08-27 15:30:00,79.5,65.8,30.00,North,0,2.2,4.0,63,0.00,,---,0.00,VWS V14.01,2013-08-27 19:30:00,
2013-08-27 15:36:00,79.7,66.5,30.00,SW,225,3.6,3.6,64,0.00,,---,0.00,VWS V14.01,2013-08-27 19:36:00,
2013-08-27 15:41:00,79.2,66.4,30.00,South,180,2.7,3.6,65,0.00,,---,0.00,VWS V14.01,2013-08-27 19:41:00,
2013-08-27 15:46:00,78.8,65.2,30.00,SW,225,3.1,4.9,63,0.00,,---,0.00,VWS V14.01,2013-08-27 19:46:00,
2013-08-27 15:50:00,78.8,64.2,30.00,SE,135,6.3,6.3,61,0.00,,---,0.00,VWS V14.01,2013-08-27 19:50:00,
2013-08-27 15:56:00,79.3,66.1,30.00,SE,135,0.0,2.7,64,0.00,,---,0.00,VWS V14.01,2013-08-27 19:56:00,
2013-08-27 16:00:00,78.8,65.6,30.00,SW,225,6.7,6.7,64,0.00,,---,0.00,VWS V14.01,2013-08-27 20:00:00,
2013-08-27 16:06:00,78.1,66.7,30.00,West,270,3.6,3.6,68,0.00,,---,0.00,VWS V14.01,2013-08-27 20:06:00,
2013-08-27 16:11:00,77.4,66.4,30.00,SW,225,2.2,3.6,69,0.00,,---,0.00,VWS V14.01,2013-08-27 20:11:00,
2013-08-27 16:16:00,77.2,67.1,30.00,West,270,0.0,2.2,71,0.00,,---,0.00,VWS V14.01,2013-08-27 20:16:00,
2013-08-27 16:21:00,77.2,67.9,30.00,South,180,2.2,4.0,73,0.00,,---,0.00,VWS V14.01,2013-08-27 20:21:00,
2013-08-27 16:26:00,77.0,66.9,30.00,NE,45,0.0,3.1,71,0.00,,---,0.00,VWS V14.01,2013-08-27 20:26:00,
2013-08-27 16:31:00,76.8,66.3,30.00,North,0,4.0,4.0,70,0.00,,---,0.00,VWS V14.01,2013-08-27 20:31:00,
2013-08-27 16:36:00,76.8,66.7,30.00,West,270,0.0,0.0,71,0.00,,---,0.00,VWS V14.01,2013-08-27 20:36:00,
2013-08-27 16:41:00,76.6,66.1,30.00,West,270,0.0,0.0,70,0.00,,---,0.00,VWS V14.01,2013-08-27 20:41:00,
2013-08-27 16:46:00,76.5,66.0,30.00,SW,225,2.7,3.6,70,0.00,,---,0.00,VWS V14.01,2013-08-27 20:46:00,
2013-08-27 16:51:00,76.6,66.5,30.00,SW,225,3.6,3.6,71,0.00,,---,0.00,VWS V14.01,2013-08-27 20:51:00,
2013-08-27 16:56:00,77.0,66.5,30.00,SE,135,2.2,2.2,70,0.00,,---,0.00,VWS V14.01,2013-08-27 20:56:00,
2013-08-27 17:01:00,77.2,66.2,30.00,SE,135,0.0,4.9,69,0.00,,---,0.00,VWS V14.01,2013-08-27 21:01:00,
2013-08-27 17:06:00,77.0,66.5,30.00,NE,45,2.7,3.6,70,0.00,,---,0.00,VWS V14.01,2013-08-27 21:06:00,
2013-08-27 17:11:00,77.0,67.3,30.00,West,270,4.0,4.0,72,0.00,,---,0.00,VWS V14.01,2013-08-27 21:11:00,
2013-08-27 17:16:00,77.2,68.3,30.00,SW,225,0.0,0.0,74,0.00,,---,0.00,VWS V14.01,2013-08-27 21:16:00,
2013-08-27 17:21:00,77.4,68.4,30.00,SW,225,6.3,8.1,74,0.00,,---,0.00,VWS V14.01,2013-08-27 21:21:00,
2013-08-27 17:26:00,77.4,68.0,30.03,SW,225,4.0,12.3,73,0.00,,---,0.00,VWS V14.01,2013-08-27 21:26:00,
2013-08-27 17:31:00,77.0,68.5,30.03,SE,135,3.1,4.0,75,0.00,,---,0.00,VWS V14.01,2013-08-27 21:31:00,
2013-08-27 17:36:00,77.0,68.9,30.03,West,270,4.9,7.6,76,0.00,,---,0.00,VWS V14.01,2013-08-27 21:36:00,
2013-08-27 17:41:00,76.1,69.1,30.00,NW,315,3.6,3.6,79,0.00,,---,0.00,VWS V14.01,2013-08-27 21:41:00,
2013-08-27 17:46:00,75.9,69.3,30.00,West,270,4.0,4.0,80,0.00,,---,0.00,VWS V14.01,2013-08-27 21:46:00,
2013-08-27 17:51:00,75.6,69.0,30.00,South,180,2.2,5.4,80,0.00,,---,0.00,VWS V14.01,2013-08-27 21:51:00,
2013-08-27 17:56:00,75.6,69.3,30.00,ESE,112,7.2,7.2,81,0.00,,---,0.00,VWS V14.01,2013-08-27 21:56:00,
2013-08-27 18:01:00,75.4,69.9,30.00,NW,315,0.0,4.0,83,0.00,,---,0.00,VWS V14.01,2013-08-27 22:01:00,
2013-08-27 18:06:00,75.2,69.7,30.00,SSE,158,2.7,4.0,83,0.00,,---,0.00,VWS V14.01,2013-08-27 22:06:00,
2013-08-27 18:11:00,75.0,70.2,30.03,South,180,2.7,3.6,85,0.00,,---,0.00,VWS V14.01,2013-08-27 22:11:00,
2013-08-27 18:16:00,74.7,70.2,30.03,SE,135,2.2,2.7,86,0.00,,---,0.00,VWS V14.01,2013-08-27 22:16:00,
2013-08-27 18:21:00,74.7,70.2,30.03,South,180,0.0,0.0,86,0.00,,---,0.00,VWS V14.01,2013-08-27 22:21:00,
2013-08-27 18:26:00,74.5,70.4,30.00,SE,135,0.0,4.9,87,0.00,,---,0.00,VWS V14.01,2013-08-27 22:26:00,
2013-08-27 18:31:00,74.5,70.4,30.00,NE,45,3.1,3.1,87,0.00,,---,0.00,VWS V14.01,2013-08-27 22:31:00,
2013-08-27 18:36:00,74.5,70.4,30.00,SW,225,0.0,0.0,87,0.00,,---,0.00,VWS V14.01,2013-08-27 22:36:00,
2013-08-27 18:41:00,74.3,70.2,30.00,South,180,0.0,2.2,87,0.00,,---,0.00,VWS V14.01,2013-08-27 22:41:00,
2013-08-27 18:46:00,74.1,70.0,30.00,SE,135,0.0,2.2,87,0.00,,---,0.00,VWS V14.01,2013-08-27 22:46:00,
2013-08-27 18:51:00,74.1,70.0,30.00,SSW,202,2.7,2.7,87,0.00,,---,0.00,VWS V14.01,2013-08-27 22:51:00,
2013-08-27 18:56:00,74.1,70.0,30.00,South,180,2.7,3.1,87,0.00,,---,0.00,VWS V14.01,2013-08-27 22:56:00,
2013-08-27 19:01:00,74.1,70.0,30.00,WNW,292,2.2,3.1,87,0.00,,---,0.00,VWS V14.01,2013-08-27 23:01:00,
2013-08-27 19:06:00,73.9,69.8,30.00,NW,315,2.7,2.7,87,0.00,,---,0.00,VWS V14.01,2013-08-27 23:06:00,
2013-08-27 19:11:00,73.9,69.8,30.00,NE,45,0.0,3.1,87,0.00,,---,0.00,VWS V14.01,2013-08-27 23:11:00,
2013-08-27 19:16:00,73.9,69.8,30.00,NW,315,3.1,3.1,87,0.00,,---,0.00,VWS V14.01,2013-08-27 23:16:00,
2013-08-27 19:21:00,73.8,70.0,30.00,South,180,0.0,0.0,88,0.00,,---,0.00,VWS V14.01,2013-08-27 23:21:00,
2013-08-27 19:26:00,73.8,70.0,30.00,NW,315,0.0,3.1,88,0.00,,---,0.00,VWS V14.01,2013-08-27 23:26:00,
2013-08-27 19:31:00,73.6,69.8,30.00,SW,225,0.0,4.0,88,0.00,,---,0.00,VWS V14.01,2013-08-27 23:31:00,
2013-08-27 19:36:00,73.6,69.8,30.00,SW,225,0.0,3.1,88,0.00,,---,0.00,VWS V14.01,2013-08-27 23:36:00,
2013-08-27 19:41:00,73.4,69.6,30.00,SE,135,0.0,0.0,88,0.00,,---,0.00,VWS V14.01,2013-08-27 23:41:00,
2013-08-27 19:46:00,73.4,69.6,30.00,North,0,0.0,2.2,88,0.00,,---,0.00,VWS V14.01,2013-08-27 23:46:00,
2013-08-27 19:51:00,73.2,69.8,30.00,South,180,0.0,4.0,89,0.00,,---,0.00,VWS V14.01,2013-08-27 23:51:00,
2013-08-27 19:56:00,73.2,69.8,30.00,SW,225,2.2,2.2,89,0.00,,---,0.00,VWS V14.01,2013-08-27 23:56:00,
2013-08-27 20:01:00,73.2,69.8,30.00,SW,225,0.0,0.0,89,0.00,,---,0.00,VWS V14.01,2013-08-28 00:01:00,
2013-08-27 20:06:00,73.2,69.8,30.00,East,90,0.0,0.0,89,0.00,,---,0.00,VWS V14.01,2013-08-28 00:06:00,
2013-08-27 20:11:00,73.2,69.8,30.00,WNW,292,0.0,0.0,89,0.00,,---,0.00,VWS V14.01,2013-08-28 00:11:00,
2013-08-27 20:16:00,73.2,69.8,30.00,SW,225,0.0,0.0,89,0.00,,---,0.00,VWS V14.01,2013-08-28 00:16:00,
2013-08-27 20:21:00,73.2,69.8,30.00,NNW,338,0.0,0.0,89,0.00,,---,0.00,VWS V14.01,2013-08-28 00:21:00,
2013-08-27 20:26:00,73.0,69.6,30.00,NW,315,3.6,4.0,89,0.00,,---,0.00,VWS V14.01,2013-08-28 00:26:00,
2013-08-27 20:31:00,73.2,69.8,30.00,SSW,202,0.0,0.0,89,0.00,,---,0.00,VWS V14.01,2013-08-28 00:31:00,
2013-08-27 20:36:00,73.0,69.6,30.00,West,270,0.0,0.0,89,0.00,,---,0.00,VWS V14.01,2013-08-28 00:36:00,
2013-08-27 20:41:00,73.0,69.6,30.00,WNW,292,0.0,3.1,89,0.00,,---,0.00,VWS V14.01,2013-08-28 00:41:00,
2013-08-27 20:46:00,73.0,69.6,30.00,SW,225,0.0,0.0,89,0.00,,---,0.00,VWS V14.01,2013-08-28 00:46:00,
2013-08-27 20:51:00,73.0,69.6,30.00,NW,315,0.0,4.0,89,0.00,,---,0.00,VWS V14.01,2013-08-28 00:51:00,
2013-08-27 20:56:00,73.0,69.6,30.03,SW,225,0.0,0.0,89,0.00,,---,0.00,VWS V14.01,2013-08-28 00:56:00,
2013-08-27 21:01:00,73.0,69.6,30.03,NW,315,0.0,0.0,89,0.00,,---,0.00,VWS V14.01,2013-08-28 01:01:00,
2013-08-27 21:06:00,73.0,69.6,30.03,East,90,0.0,0.0,89,0.00,,---,0.00,VWS V14.01,2013-08-28 01:06:00,
2013-08-27 21:11:00,73.0,69.6,30.00,North,0,0.0,0.0,89,0.00,,---,0.00,VWS V14.01,2013-08-28 01:11:00,
2013-08-27 21:16:00,73.0,69.6,30.00,West,270,0.0,0.0,89,0.00,,---,0.00,VWS V14.01,2013-08-28 01:16:00,
2013-08-27 21:21:00,72.9,69.4,30.00,South,180,0.0,0.0,89,0.00,,---,0.00,VWS V14.01,2013-08-28 01:21:00,
2013-08-27 21:26:00,73.0,69.6,30.00,SW,225,0.0,0.0,89,0.00,,---,0.00,VWS V14.01,2013-08-28 01:26:00,
2013-08-27 21:31:00,73.0,69.3,30.00,SW,225,0.0,0.0,88,0.00,,---,0.00,VWS V14.01,2013-08-28 01:31:00,
2013-08-27 21:36:00,73.0,69.3,30.00,SW,225,0.0,0.0,88,0.00,,---,0.00,VWS V14.01,2013-08-28 01:36:00,
2013-08-27 21:41:00,73.0,69.6,30.00,SW,225,0.0,0.0,89,0.00,,---,0.00,VWS V14.01,2013-08-28 01:41:00,
2013-08-27 21:46:00,73.0,69.6,30.00,South,180,0.0,0.0,89,0.00,,---,0.00,VWS V14.01,2013-08-28 01:46:00,
2013-08-27 21:51:00,73.0,69.6,30.00,SW,225,0.0,0.0,89,0.00,,---,0.00,VWS V14.01,2013-08-28 01:51:00,
2013-08-27 21:56:00,72.9,69.4,30.00,SW,225,0.0,0.0,89,0.00,,---,0.00,VWS V14.01,2013-08-28 01:56:00,
2013-08-27 22:01:00,72.9,69.4,30.00,SSW,202,0.0,0.0,89,0.00,,---,0.00,VWS V14.01,2013-08-28 02:01:00,
2013-08-27 22:06:00,72.9,69.4,30.00,SW,225,0.0,0.0,89,0.00,,---,0.00,VWS V14.01,2013-08-28 02:06:00,
2013-08-27 22:11:00,72.9,69.4,30.00,SW,225,0.0,0.0,89,0.00,,---,0.00,VWS V14.01,2013-08-28 02:11:00,
2013-08-27 22:16:00,72.7,69.3,30.00,ESE,112,0.0,0.0,89,0.00,,---,0.00,VWS V14.01,2013-08-28 02:16:00,
2013-08-27 22:21:00,72.7,69.3,30.00,SW,225,0.0,0.0,89,0.00,,---,0.00,VWS V14.01,2013-08-28 02:21:00,
2013-08-27 22:26:00,72.7,69.3,30.00,East,90,0.0,0.0,89,0.00,,---,0.00,VWS V14.01,2013-08-28 02:26:00,
2013-08-27 22:31:00,72.7,68.9,30.00,East,90,0.0,0.0,88,0.00,,---,0.00,VWS V14.01,2013-08-28 02:31:00,
2013-08-27 22:36:00,72.5,69.1,30.00,East,90,0.0,0.0,89,0.00,,---,0.00,VWS V14.01,2013-08-28 02:36:00,
2013-08-27 22:41:00,72.5,69.1,30.03,South,180,0.0,0.0,89,0.00,,---,0.00,VWS V14.01,2013-08-28 02:41:00,
2013-08-27 22:46:00,72.5,69.1,30.03,South,180,0.0,0.0,89,0.00,,---,0.00,VWS V14.01,2013-08-28 02:46:00,
2013-08-27 22:51:00,72.5,69.1,30.03,South,180,0.0,0.0,89,0.00,,---,0.00,VWS V14.01,2013-08-28 02:51:00,
2013-08-27 22:56:00,72.5,69.1,30.00,SSW,202,0.0,0.0,89,0.00,,---,0.00,VWS V14.01,2013-08-28 02:56:00,
2013-08-27 23:01:00,72.3,68.9,30.00,South,180,0.0,0.0,89,0.00,,---,0.00,VWS V14.01,2013-08-28 03:01:00,
2013-08-27 23:06:00,72.3,68.9,30.00,SW,225,0.0,0.0,89,0.00,,---,0.00,VWS V14.01,2013-08-28 03:06:00,
2013-08-27 23:11:00,72.5,69.1,30.00,South,180,0.0,0.0,89,0.00,,---,0.00,VWS V14.01,2013-08-28 03:11:00,
2013-08-27 23:16:00,72.5,68.8,30.00,SW,225,0.0,0.0,88,0.00,,---,0.00,VWS V14.01,2013-08-28 03:16:00,
2013-08-27 23:21:00,72.5,69.1,30.00,SW,225,0.0,0.0,89,0.00,,---,0.00,VWS V14.01,2013-08-28 03:21:00,
2013-08-27 23:26:00,72.5,69.1,29.97,West,270,0.0,0.0,89,0.00,,---,0.00,VWS V14.01,2013-08-28 03:26:00,
2013-08-27 23:31:00,72.5,69.1,29.97,SW,225,0.0,0.0,89,0.00,,---,0.00,VWS V14.01,2013-08-28 03:31:00,
2013-08-27 23:36:00,72.5,69.1,29.97,SW,225,0.0,0.0,89,0.00,,---,0.00,VWS V14.01,2013-08-28 03:36:00,
2013-08-27 23:41:00,72.5,69.1,29.97,SW,225,0.0,0.0,89,0.00,,---,0.00,VWS V14.01,2013-08-28 03:41:00,
2013-08-27 23:46:00,72.5,69.1,29.97,SW,225,0.0,0.0,89,0.00,,---,0.00,VWS V14.01,2013-08-28 03:46:00,
2013-08-27 23:51:00,72.7,69.3,29.97,SE,135,0.0,0.0,89,0.00,,---,0.00,VWS V14.01,2013-08-28 03:51:00,
2013-08-27 23:56:00,72.7,69.3,29.97,SW,225,2.2,2.2,89,0.00,,---,0.00,VWS V14.01,2013-08-28 03:56:00,